createdAt,value
2018-10-18T00:01:40.123Z,20.80
2018-10-18T00:04:10.791Z,20.33
2018-10-18T00:06:42.037Z,23.53
2018-10-18T00:09:12.855Z,19.77
2018-10-18T00:11:45.823Z,20.63
2018-10-18T00:14:17.487Z,25.33
2018-10-18T00:16:47.781Z,21.70
2018-10-18T00:19:18.732Z,21.93
2018-10-18T00:21:49.232Z,21.50
2018-10-18T00:24:21.075Z,20.10
2018-10-18T00:26:51.807Z,19.03
2018-10-18T00:29:22.039Z,21.00
2018-10-18T00:31:52.999Z,21.33
2018-10-18T00:34:25.559Z,19.17
2018-10-18T00:36:55.779Z,22.70
2018-10-18T00:39:26.191Z,18.03
2018-10-18T00:41:57.504Z,17.23
2018-10-18T00:44:28.131Z,18.70
2018-10-18T00:46:58.466Z,19.23
2018-10-18T00:49:29.137Z,18.70
2018-10-18T00:52:00.821Z,19.37
2018-10-18T00:54:31.250Z,20.33
2018-10-18T00:57:01.928Z,21.87
2018-10-18T00:59:32.430Z,18.70
2018-10-18T01:02:03.573Z,19.97
2018-10-18T01:04:33.709Z,20.93
2018-10-18T01:07:03.885Z,17.17
2018-10-18T01:09:35.119Z,20.00
2018-10-18T01:12:06.562Z,21.50
2018-10-18T01:14:37.064Z,21.33
2018-10-18T01:17:08.019Z,20.90
2018-10-18T01:19:39.687Z,19.93
2018-10-18T01:22:10.096Z,19.10
2018-10-18T01:24:46.263Z,21.60
2018-10-18T01:27:16.694Z,17.27
2018-10-18T01:29:46.903Z,20.13
2018-10-18T01:32:17.789Z,19.63
2018-10-18T01:34:50.933Z,18.07
2018-10-18T01:37:21.366Z,19.77
2018-10-18T01:39:52.584Z,17.17
2018-10-18T01:42:23.527Z,16.33
2018-10-18T01:44:53.845Z,19.13
2018-10-18T01:47:24.387Z,19.80
2018-10-18T01:50:00.074Z,17.97
2018-10-18T01:52:30.545Z,20.47
2018-10-18T01:55:00.648Z,18.47
2018-10-18T01:57:31.714Z,18.27
2018-10-18T02:00:03.080Z,18.47
2018-10-18T02:02:33.974Z,17.93
2018-10-18T02:05:04.129Z,21.40
2018-10-18T02:07:34.652Z,21.67
2018-10-18T02:10:04.870Z,22.70
2018-10-18T02:12:35.094Z,20.30
2018-10-18T02:15:05.926Z,20.43
2018-10-18T02:17:35.959Z,20.17
2018-10-18T02:20:06.486Z,25.60
2018-10-18T02:22:36.778Z,17.23
2018-10-18T02:25:07.955Z,18.93
2018-10-18T02:27:38.580Z,22.13
2018-10-18T02:30:09.096Z,17.60
2018-10-18T02:32:39.408Z,22.47
2018-10-18T02:35:10.234Z,17.77
2018-10-18T02:37:41.067Z,20.27
2018-10-18T02:40:12.673Z,19.53
2018-10-18T02:42:43.002Z,20.10
2018-10-18T02:45:14.603Z,19.47
2018-10-18T02:47:46.230Z,19.57
2018-10-18T02:50:16.572Z,20.33
2018-10-18T02:52:47.686Z,20.83
2018-10-18T02:55:18.531Z,19.00
2018-10-18T02:57:49.912Z,18.43
2018-10-18T03:00:21.172Z,20.80
2018-10-18T03:02:51.344Z,18.07
2018-10-18T03:05:21.761Z,19.23
2018-10-18T03:07:53.414Z,22.60
2018-10-18T03:10:25.088Z,23.00
2018-10-18T03:12:55.413Z,20.27
2018-10-18T03:15:26.052Z,18.03
2018-10-18T03:17:57.014Z,20.03
2018-10-18T03:20:31.441Z,24.13
2018-10-18T03:23:03.087Z,16.87
2018-10-18T03:25:33.688Z,20.37
2018-10-18T03:28:08.917Z,21.27
2018-10-18T03:30:39.474Z,22.10
2018-10-18T03:33:19.034Z,19.33
2018-10-18T03:36:15.775Z,21.00
2018-10-18T03:38:50.971Z,19.30
2018-10-18T03:41:21.971Z,19.80
2018-10-18T03:43:52.535Z,18.83
2018-10-18T03:46:23.784Z,19.37
2018-10-18T03:48:54.154Z,21.47
2018-10-18T03:51:25.810Z,20.77
2018-10-18T03:53:58.302Z,22.90
2018-10-18T03:56:32.572Z,18.30
2018-10-18T03:59:03.405Z,17.90
2018-10-18T04:01:34.144Z,22.53
2018-10-18T04:04:06.548Z,21.70
2018-10-18T04:06:37.726Z,22.83
2018-10-18T04:09:10.570Z,20.07
2018-10-18T04:11:41.962Z,17.10
2018-10-18T04:14:13.839Z,21.47
2018-10-18T04:16:45.187Z,21.13
2018-10-18T04:19:18.160Z,20.27
2018-10-18T04:21:48.943Z,18.80
2018-10-18T04:24:19.578Z,21.63
2018-10-18T04:26:51.910Z,19.60
2018-10-18T04:29:23.276Z,20.00
2018-10-18T04:31:55.991Z,20.20
2018-10-18T04:34:26.832Z,17.60
2018-10-18T04:36:59.094Z,21.07
2018-10-18T04:39:31.245Z,21.83
2018-10-18T04:42:01.287Z,21.23
2018-10-18T04:44:31.868Z,19.83
2018-10-18T04:47:01.896Z,17.50
2018-10-18T04:49:32.156Z,19.00
2018-10-18T04:52:05.334Z,17.63
2018-10-18T04:54:36.169Z,20.00
2018-10-18T04:57:10.148Z,21.07
2018-10-18T04:59:41.632Z,19.53
2018-10-18T05:02:13.935Z,19.87
2018-10-18T05:04:53.605Z,21.77
2018-10-18T05:07:24.531Z,19.17
2018-10-18T05:09:55.751Z,19.93
2018-10-18T05:12:26.257Z,21.57
2018-10-18T05:15:01.732Z,19.17
2018-10-18T05:17:31.797Z,21.13
2018-10-18T05:20:02.901Z,21.60
2018-10-18T05:22:32.825Z,19.73
2018-10-18T05:25:03.351Z,22.87
2018-10-18T05:27:33.248Z,22.40
2018-10-18T05:30:03.490Z,20.50
2018-10-18T05:32:33.608Z,21.57
2018-10-18T05:35:04.589Z,21.30
2018-10-18T05:37:35.559Z,22.17
2018-10-18T05:40:05.954Z,22.00
2018-10-18T05:42:44.866Z,23.83
2018-10-18T05:45:33.489Z,26.63
2018-10-18T05:48:21.432Z,22.97
2018-10-18T05:50:52.832Z,20.37
2018-10-18T05:53:24.732Z,21.67
2018-10-18T05:55:59.260Z,25.63
2018-10-18T05:58:41.252Z,20.37
2018-10-18T06:01:17.492Z,20.63
2018-10-18T06:03:59.774Z,21.97
2018-10-18T06:06:33.714Z,19.83
2018-10-18T06:09:04.030Z,21.83
2018-10-18T06:11:35.058Z,24.43
2018-10-18T06:14:14.199Z,35.07
2018-10-18T06:16:53.235Z,26.27
2018-10-18T06:19:24.685Z,30.83
2018-10-18T06:21:56.337Z,23.97
2018-10-18T06:24:27.711Z,24.13
2018-10-18T06:26:58.594Z,28.00
2018-10-18T06:29:31.806Z,27.10
2018-10-18T06:32:02.523Z,30.43
2018-10-18T06:34:33.729Z,36.30
2018-10-18T06:37:03.875Z,45.10
2018-10-18T06:39:35.331Z,38.27
2018-10-18T06:42:05.976Z,30.87
2018-10-18T06:44:36.888Z,29.90
2018-10-18T06:47:08.453Z,30.50
2018-10-18T06:49:38.875Z,27.23
2018-10-18T06:52:10.849Z,30.27
2018-10-18T06:54:41.365Z,31.67
2018-10-18T06:57:12.132Z,27.60
2018-10-18T06:59:42.714Z,29.20
2018-10-18T07:02:14.324Z,27.60
2018-10-18T07:04:45.195Z,28.70
2018-10-18T07:07:15.566Z,34.53
2018-10-18T07:09:46.632Z,28.00
2018-10-18T07:12:16.881Z,37.20
2018-10-18T07:14:47.296Z,26.37
2018-10-18T07:17:17.568Z,26.43
2018-10-18T07:19:49.047Z,30.60
2018-10-18T07:22:20.647Z,24.30
2018-10-18T07:24:51.436Z,30.30
2018-10-18T07:27:22.014Z,37.13
2018-10-18T07:29:52.434Z,27.57
2018-10-18T07:32:24.013Z,34.07
2018-10-18T07:34:55.185Z,36.73
2018-10-18T07:37:26.354Z,31.03
2018-10-18T07:39:57.619Z,35.67
2018-10-18T07:42:28.710Z,31.93
2018-10-18T07:44:59.830Z,26.90
2018-10-18T07:47:31.233Z,29.90
2018-10-18T07:50:05.006Z,29.10
2018-10-18T07:52:36.137Z,35.23
2018-10-18T07:55:07.112Z,28.07
2018-10-18T07:57:38.529Z,26.40
2018-10-18T08:00:13.553Z,27.93
2018-10-18T08:02:46.117Z,32.47
2018-10-18T08:05:16.561Z,26.73
2018-10-18T08:07:47.326Z,28.80
2018-10-18T08:10:19.167Z,24.17
2018-10-18T08:12:49.585Z,32.60
2018-10-18T08:15:24.486Z,29.50
2018-10-18T08:17:55.461Z,28.67
2018-10-18T08:20:26.840Z,24.63
2018-10-18T08:22:57.883Z,31.40
2018-10-18T08:28:45.849Z,25.17
2018-10-18T08:31:16.451Z,27.97
2018-10-18T08:33:47.814Z,26.97
2018-10-18T08:36:19.279Z,26.67
2018-10-18T08:38:52.233Z,28.83
2018-10-18T08:41:23.017Z,28.40
2018-10-18T08:43:54.155Z,31.27
2018-10-18T08:46:27.549Z,25.50
2018-10-18T08:49:00.564Z,29.00
2018-10-18T08:51:32.176Z,35.67
2018-10-18T08:54:02.695Z,28.47
2018-10-18T08:56:33.304Z,26.90
2018-10-18T08:59:06.245Z,33.50
2018-10-18T09:01:38.525Z,28.13
2018-10-18T09:04:18.198Z,27.07
2018-10-18T09:06:58.493Z,32.70
2018-10-18T09:09:35.055Z,29.37
2018-10-18T09:12:13.325Z,36.53
2018-10-18T09:14:49.569Z,33.73
2018-10-18T09:17:22.811Z,35.67
2018-10-18T09:19:53.853Z,37.87
2018-10-18T09:22:36.158Z,42.43
2018-10-18T09:25:16.087Z,41.67
2018-10-18T09:27:57.307Z,44.70
2018-10-18T09:30:40.461Z,39.43
2018-10-18T09:33:20.441Z,38.73
2018-10-18T09:35:52.491Z,39.80
2018-10-18T09:38:23.006Z,46.00
2018-10-18T09:40:54.514Z,36.93
2018-10-18T09:43:31.292Z,33.37
2018-10-18T09:46:03.164Z,35.20
2018-10-18T09:48:35.860Z,34.47
2018-10-18T09:51:07.500Z,38.13
2018-10-18T09:53:38.576Z,43.67
2018-10-18T09:56:09.238Z,41.80
2018-10-18T09:58:39.552Z,46.17
2018-10-18T10:03:20.183Z,50.37
2018-10-18T10:05:51.120Z,39.40
2018-10-18T10:08:22.865Z,48.47
2018-10-18T10:10:53.362Z,53.17
2018-10-18T10:13:30.509Z,47.17
2018-10-18T10:16:00.745Z,50.07
2018-10-18T10:18:32.737Z,39.50
2018-10-18T10:21:14.442Z,30.37
2018-10-18T10:23:44.894Z,49.47
2018-10-18T10:26:19.297Z,34.50
2018-10-18T10:28:50.979Z,44.67
2018-10-18T10:31:25.840Z,45.50
2018-10-18T10:33:59.957Z,43.97
2018-10-18T10:36:32.510Z,39.60
2018-10-18T10:39:03.683Z,41.67
2018-10-18T10:41:33.759Z,38.73
2018-10-18T10:44:08.199Z,47.17
2018-10-18T10:46:41.113Z,34.27
2018-10-18T10:49:12.089Z,37.23
2018-10-18T10:51:43.530Z,47.73
2018-10-18T10:54:14.010Z,37.50
2018-10-18T10:56:45.425Z,38.60
2018-10-18T10:59:19.005Z,34.70
2018-10-18T11:01:50.168Z,37.83
2018-10-18T11:04:20.536Z,35.93
2018-10-18T11:06:52.521Z,34.60
2018-10-18T11:10:35.910Z,31.50
2018-10-18T11:13:27.411Z,34.70
2018-10-18T11:15:58.404Z,35.30
2018-10-18T11:18:30.174Z,46.37
2018-10-18T11:21:00.818Z,42.83
2018-10-18T11:23:32.078Z,40.47
2018-10-18T11:26:02.185Z,34.30
2018-10-18T11:28:33.360Z,37.90
2018-10-18T11:31:03.323Z,32.73
2018-10-18T11:33:33.618Z,40.50
2018-10-18T11:36:04.139Z,36.67
2018-10-18T11:38:34.354Z,35.47
2018-10-18T11:41:04.932Z,48.80
2018-10-18T11:43:35.843Z,39.23
2018-10-18T11:46:05.999Z,37.47
2018-10-18T11:48:37.000Z,36.17
2018-10-18T11:51:07.216Z,37.80
2018-10-18T11:53:40.230Z,40.77
2018-10-18T11:56:10.692Z,41.17
2018-10-18T11:58:41.860Z,34.70
2018-10-18T12:01:12.953Z,41.77
2018-10-18T12:03:43.009Z,38.80
2018-10-18T12:06:17.672Z,35.70
2018-10-18T12:08:49.331Z,33.07
2018-10-18T12:11:20.603Z,32.00
2018-10-18T12:13:52.020Z,28.53
2018-10-18T12:16:23.830Z,32.37
2018-10-18T12:18:55.544Z,34.30
2018-10-18T12:21:26.505Z,26.50
2018-10-18T12:23:56.814Z,27.90
2018-10-18T12:26:27.093Z,34.43
2018-10-18T12:28:58.193Z,29.23
2018-10-18T12:31:28.481Z,28.97
2018-10-18T12:33:59.309Z,32.90
2018-10-18T12:36:29.419Z,39.30
2018-10-18T12:39:03.668Z,24.47
2018-10-18T12:41:34.421Z,35.80
2018-10-18T12:44:04.602Z,36.60
2018-10-18T12:46:34.441Z,26.17
2018-10-18T12:49:06.652Z,29.07
2018-10-18T12:51:36.871Z,32.67
2018-10-18T12:54:07.414Z,31.37
2018-10-18T12:56:38.666Z,22.87
2018-10-18T12:59:17.180Z,23.73
2018-10-18T13:01:53.755Z,27.10
2018-10-18T13:04:24.368Z,29.63
2018-10-18T13:06:55.754Z,25.23
2018-10-18T13:09:26.699Z,31.13
2018-10-18T13:11:57.574Z,28.23
2018-10-18T13:14:29.705Z,24.40
2018-10-18T13:17:04.124Z,31.60
2018-10-18T13:19:34.015Z,29.00
2018-10-18T13:22:03.892Z,25.83
2018-10-18T13:24:34.486Z,24.13
2018-10-18T13:27:05.532Z,28.87
2018-10-18T13:29:36.641Z,23.73
2018-10-18T13:32:07.920Z,27.43
2018-10-18T13:34:38.132Z,29.10
2018-10-18T13:37:10.294Z,29.97
2018-10-18T13:39:41.786Z,31.57
2018-10-18T13:42:12.271Z,31.23
2018-10-18T13:44:42.700Z,29.03
2018-10-18T13:47:13.216Z,29.40
2018-10-18T13:49:44.566Z,32.10
2018-10-18T13:52:15.707Z,28.97
2018-10-18T13:54:47.253Z,25.93
2018-10-18T13:57:18.087Z,25.80
2018-10-18T14:00:11.758Z,31.60
2018-10-18T14:02:43.482Z,27.23
2018-10-18T14:05:14.485Z,29.47
2018-10-18T14:07:46.862Z,28.47
2018-10-18T14:10:17.459Z,30.93
2018-10-18T14:12:47.746Z,34.10
2018-10-18T14:15:18.430Z,31.10
2018-10-18T14:17:50.011Z,31.83
2018-10-18T14:20:24.365Z,31.63
2018-10-18T14:22:55.323Z,31.47
2018-10-18T14:25:38.753Z,34.47
2018-10-18T14:28:20.840Z,30.20
2018-10-18T14:30:51.663Z,29.50
2018-10-18T14:33:23.147Z,29.93
2018-10-18T14:35:54.534Z,32.30
2018-10-18T14:38:25.436Z,29.87
2018-10-18T14:40:56.952Z,28.80
2018-10-18T14:43:28.266Z,25.30
2018-10-18T14:45:59.127Z,30.53
2018-10-18T14:48:30.134Z,25.40
2018-10-18T14:51:02.980Z,29.87
2018-10-18T14:53:32.900Z,23.97
2018-10-18T14:56:03.541Z,21.87
2018-10-18T14:58:34.830Z,21.73
2018-10-18T15:01:05.522Z,25.43
2018-10-18T15:03:35.446Z,27.03
2018-10-18T15:06:07.324Z,24.00
2018-10-18T15:08:38.806Z,22.23
2018-10-18T15:11:10.145Z,21.90
2018-10-18T15:13:40.533Z,26.23
2018-10-18T15:16:11.029Z,18.53
2018-10-18T15:18:41.167Z,22.33
2018-10-18T15:21:13.407Z,20.00
2018-10-18T15:23:44.261Z,23.30
2018-10-18T15:26:15.807Z,20.43
2018-10-18T15:28:51.188Z,18.53
2018-10-18T15:31:21.260Z,18.70
2018-10-18T15:33:51.166Z,20.83
2018-10-18T15:36:23.231Z,24.07
2018-10-18T15:39:10.454Z,21.20
2018-10-18T15:41:52.293Z,23.80
2018-10-18T15:44:25.150Z,19.57
2018-10-18T15:46:55.282Z,15.87
2018-10-18T15:49:29.277Z,16.90
2018-10-18T15:51:59.577Z,17.13
2018-10-18T15:54:37.811Z,16.13
2018-10-18T15:57:10.450Z,21.27
2018-10-18T15:59:41.805Z,20.10
2018-10-18T16:02:12.158Z,15.20
2018-10-18T16:04:44.154Z,20.73
2018-10-18T16:07:19.379Z,21.37
2018-10-18T16:09:51.168Z,18.67
2018-10-18T16:12:20.974Z,21.97
2018-10-18T16:14:51.729Z,24.27
2018-10-18T16:17:21.567Z,20.40
2018-10-18T16:19:52.052Z,21.33
2018-10-18T16:22:22.184Z,21.23
2018-10-18T16:24:53.897Z,20.97
2018-10-18T16:27:30.157Z,22.57
2018-10-18T16:30:01.781Z,19.90
2018-10-18T16:32:32.456Z,19.03
2018-10-18T16:35:03.493Z,17.60
2018-10-18T16:37:36.373Z,21.83
2018-10-18T16:40:07.611Z,20.33
2018-10-18T16:42:38.550Z,25.50
2018-10-18T16:45:11.064Z,18.07
2018-10-18T16:47:41.348Z,21.00
2018-10-18T16:50:12.972Z,17.30
2018-10-18T16:55:37.837Z,17.53
2018-10-18T16:58:35.497Z,17.97
2018-10-18T17:01:07.893Z,18.67
2018-10-18T17:03:39.202Z,17.10
2018-10-18T17:06:29.055Z,19.50
2018-10-18T17:08:59.488Z,18.43
2018-10-18T17:11:32.342Z,19.97
2018-10-18T17:14:07.775Z,21.00
2018-10-18T17:16:38.469Z,17.10
2018-10-18T17:19:08.384Z,17.80
2018-10-18T17:21:38.850Z,16.70
2018-10-18T17:24:08.844Z,22.07
2018-10-18T17:26:39.688Z,21.23
2018-10-18T17:29:13.394Z,20.80
2018-10-18T17:31:46.394Z,16.97
2018-10-18T17:34:18.965Z,22.77
2018-10-18T17:36:53.681Z,21.10
2018-10-18T17:39:24.467Z,21.97
2018-10-18T17:41:55.806Z,20.67
2018-10-18T17:44:27.593Z,25.90
2018-10-18T17:46:58.541Z,18.20
2018-10-18T17:49:28.863Z,20.27
2018-10-18T17:51:59.586Z,20.97
2018-10-18T17:54:29.792Z,24.80
2018-10-18T17:57:00.725Z,24.30
2018-10-18T17:59:31.233Z,21.23
2018-10-18T18:02:02.644Z,22.00
2018-10-18T18:04:33.204Z,23.17
2018-10-18T18:07:04.160Z,17.53
2018-10-18T18:09:34.262Z,25.67
2018-10-18T18:15:11.627Z,21.07
2018-10-18T18:17:43.670Z,23.17
2018-10-18T18:20:14.122Z,25.07
2018-10-18T18:22:45.434Z,27.27
2018-10-18T18:25:16.195Z,31.40
2018-10-18T18:27:47.417Z,26.63
2018-10-18T18:30:18.645Z,28.60
2018-10-18T18:32:49.470Z,28.70
2018-10-18T18:35:20.031Z,28.33
2018-10-18T18:37:51.879Z,24.70
2018-10-18T18:40:22.768Z,27.07
2018-10-18T18:42:57.841Z,30.40
2018-10-18T18:45:36.510Z,25.80
2018-10-18T18:48:07.400Z,24.07
2018-10-18T18:50:38.422Z,24.20
2018-10-18T18:53:09.378Z,26.23
2018-10-18T18:55:39.717Z,25.30
2018-10-18T18:58:20.406Z,29.10
2018-10-18T19:01:00.614Z,24.70
2018-10-18T19:03:31.293Z,21.00
2018-10-18T19:06:01.838Z,26.47
2018-10-18T19:08:32.146Z,26.63
2018-10-18T19:11:03.288Z,25.80
2018-10-18T19:13:33.655Z,24.90
2018-10-18T19:16:03.616Z,29.70
2018-10-18T19:18:33.823Z,26.47
2018-10-18T19:21:03.903Z,25.20
2018-10-18T19:23:34.615Z,22.73
2018-10-18T19:26:04.643Z,22.70
2018-10-18T19:28:34.539Z,26.07
2018-10-18T19:31:05.266Z,25.73
2018-10-18T19:33:35.795Z,24.30
2018-10-18T19:36:06.251Z,30.53
2018-10-18T19:38:36.493Z,27.70
2018-10-18T19:41:11.749Z,45.37
2018-10-18T19:43:42.096Z,37.50
2018-10-18T19:46:19.825Z,34.23
2018-10-18T19:48:52.428Z,30.80
2018-10-18T19:51:22.476Z,36.90
2018-10-18T19:53:53.797Z,39.00
2018-10-18T19:56:23.965Z,29.90
2018-10-18T19:58:55.837Z,35.90
2018-10-18T20:01:26.628Z,34.10
2018-10-18T20:03:57.320Z,28.90
2018-10-18T20:06:28.451Z,29.03
2018-10-18T20:09:06.412Z,29.97
2018-10-18T20:11:37.927Z,26.27
2018-10-18T20:14:08.751Z,32.87
2018-10-18T20:16:40.681Z,30.17
2018-10-18T20:19:12.082Z,30.33
2018-10-18T20:21:43.077Z,34.13
2018-10-18T20:24:13.341Z,34.20
2018-10-18T20:26:43.905Z,25.13
2018-10-18T20:29:16.251Z,35.67
2018-10-18T20:31:47.553Z,32.50
2018-10-18T20:34:18.208Z,36.63
2018-10-18T20:36:49.005Z,33.03
2018-10-18T20:39:20.669Z,33.20
2018-10-18T20:41:51.198Z,35.13
2018-10-18T20:44:21.950Z,42.30
2018-10-18T20:46:52.217Z,38.23
2018-10-18T20:49:22.790Z,31.53
2018-10-18T20:51:53.026Z,35.63
2018-10-18T20:54:25.118Z,38.00
2018-10-18T20:56:56.556Z,35.67
2018-10-18T20:59:28.013Z,40.47
2018-10-18T21:01:59.416Z,36.07
2018-10-18T21:04:30.029Z,33.40
2018-10-18T21:07:02.923Z,30.40
2018-10-18T21:09:37.242Z,31.57
2018-10-18T21:12:08.262Z,36.20
2018-10-18T21:14:38.748Z,43.27
2018-10-18T21:17:09.050Z,39.50
2018-10-18T21:19:39.260Z,43.87
2018-10-18T21:22:10.053Z,46.10
2018-10-18T21:24:40.715Z,40.90
2018-10-18T21:27:11.082Z,39.40
2018-10-18T21:29:41.581Z,41.83
2018-10-18T21:32:12.934Z,39.40
2018-10-18T21:34:43.179Z,42.10
2018-10-18T21:37:15.382Z,40.27
2018-10-18T21:39:45.812Z,43.77
2018-10-18T21:42:17.327Z,41.97
2018-10-18T21:44:49.155Z,49.80
2018-10-18T21:47:24.273Z,48.07
2018-10-18T21:49:56.333Z,38.20
2018-10-18T21:52:26.987Z,48.07
2018-10-18T21:54:59.211Z,43.33
2018-10-18T21:57:33.263Z,43.30
2018-10-18T22:00:03.158Z,47.17
2018-10-18T22:02:33.125Z,54.60
2018-10-18T22:05:03.467Z,53.50
2018-10-18T22:07:34.005Z,46.17
2018-10-18T22:10:06.824Z,51.07
2018-10-18T22:12:37.747Z,43.70
2018-10-18T22:15:09.913Z,44.27
2018-10-18T22:17:41.661Z,46.00
2018-10-18T22:20:13.533Z,52.10
2018-10-18T22:22:44.043Z,55.00
2018-10-18T22:25:17.851Z,55.33
2018-10-18T22:27:49.607Z,53.80
2018-10-18T22:30:20.607Z,54.27
2018-10-18T22:32:51.938Z,53.17
2018-10-18T22:35:23.310Z,49.17
2018-10-18T22:37:54.038Z,54.53
2018-10-18T22:40:25.376Z,52.00
2018-10-18T22:42:56.816Z,48.73
2018-10-18T22:45:27.685Z,56.60
2018-10-18T22:47:57.962Z,59.13
2018-10-18T22:50:28.406Z,62.40
2018-10-18T22:52:59.774Z,60.03
2018-10-18T22:55:33.930Z,65.90
2018-10-18T22:58:04.750Z,74.57
2018-10-18T23:00:35.852Z,71.67
2018-10-18T23:03:07.669Z,63.50
2018-10-18T23:05:38.834Z,61.23
2018-10-18T23:08:09.990Z,61.07
2018-10-18T23:10:41.485Z,58.30
2018-10-18T23:13:12.160Z,58.60
2018-10-18T23:15:42.375Z,56.40
2018-10-18T23:18:12.743Z,57.77
2018-10-18T23:20:43.333Z,58.23
2018-10-18T23:23:13.922Z,64.07
2018-10-18T23:25:45.224Z,69.37
2018-10-18T23:28:15.676Z,69.47
2018-10-18T23:30:49.291Z,55.83
2018-10-18T23:33:24.286Z,67.00
2018-10-18T23:36:05.260Z,56.23
2018-10-18T23:38:39.917Z,55.30
2018-10-18T23:41:22.908Z,55.63
2018-10-18T23:43:54.639Z,56.03
2018-10-18T23:46:25.971Z,57.43
2018-10-18T23:48:57.122Z,61.57
2018-10-18T23:51:29.703Z,61.00
2018-10-18T23:53:59.914Z,59.47
2018-10-18T23:56:31.209Z,69.43
2018-10-18T23:59:02.600Z,67.77
